Time;durP1;ratioP1;P1;durP2;ratioP2;P2;SDS_P1;SDS_P2;PMS_P1;PMS_P2;Temp;Humidity;BMP_temperature;BMP_pressure;BME280_temperature;BME280_humidity;BME280_pressure;Samples;Min_cycle;Max_cycle;Signal;HPM_P1;HPM_P2
2021/10/01 00:02:25;;;;;;;4.07;1.33;;;14.90;61.00;;;;;;4996306;28;20179;-90
2021/10/01 00:05:00;;;;;;;6.53;1.60;;;14.90;60.80;;;;;;4995216;28;20200;-89
2021/10/01 00:07:27;;;;;;;3.85;1.70;;;14.90;60.80;;;;;;4977662;28;20202;-90
2021/10/01 00:09:53;;;;;;;7.53;2.85;;;14.90;60.90;;;;;;4994948;28;20646;-90
2021/10/01 00:12:18;;;;;;;2.70;1.50;;;14.90;60.80;;;;;;4977668;28;20184;-90
2021/10/01 00:14:45;;;;;;;2.17;1.57;;;14.90;62.00;;;;;;4977749;28;20895;-90
2021/10/01 00:17:11;;;;;;;5.63;1.85;;;14.90;60.80;;;;;;4977764;28;20179;-90
2021/10/01 00:19:37;;;;;;;2.90;1.50;;;15.00;60.70;;;;;;4999758;28;20662;-90
2021/10/01 00:22:03;;;;;;;2.60;1.92;;;15.00;60.50;;;;;;5001961;28;20432;-89
2021/10/01 00:24:34;;;;;;;3.30;1.90;;;15.00;60.50;;;;;;4995051;28;20230;-89
2021/10/01 00:27:00;;;;;;;4.47;1.60;;;15.10;60.80;;;;;;4999634;28;20207;-90
2021/10/01 00:29:27;;;;;;;7.85;1.70;;;15.10;60.60;;;;;;4981248;28;20179;-89
2021/10/01 00:31:52;;;;;;;2.45;1.65;;;15.10;60.50;;;;;;4965083;28;20187;-90
2021/10/01 00:34:18;;;;;;;1.43;1.33;;;15.10;60.60;;;;;;4981007;28;20202;-89
2021/10/01 00:36:44;;;;;;;3.73;1.57;;;15.00;60.20;;;;;;4977947;28;20183;-89
2021/10/01 00:39:10;;;;;;;5.50;2.00;;;15.10;60.40;;;;;;4977809;28;20630;-89
2021/10/01 00:41:37;;;;;;;2.77;1.60;;;15.00;60.10;;;;;;5006918;28;20468;-89
2021/10/01 00:44:04;;;;;;;6.43;2.42;;;15.00;60.50;;;;;;4981516;28;20744;-89
2021/10/01 00:46:30;;;;;;;2.55;1.50;;;15.10;60.60;;;;;;4984177;28;20210;-90
2021/10/01 00:48:56;;;;;;;1.63;1.52;;;15.10;60.40;;;;;;4977175;28;20183;-90
2021/10/01 00:51:23;;;;;;;4.73;1.50;;;15.00;60.10;;;;;;4977291;28;20198;-91
2021/10/01 00:53:51;;;;;;;6.15;1.75;;;15.10;60.20;;;;;;4977057;28;20203;-91
2021/10/01 00:56:19;;;;;;;3.17;1.30;;;15.10;60.20;;;;;;4977071;28;20535;-91
2021/10/01 00:58:45;;;;;;;2.65;1.60;;;15.10;60.40;;;;;;4977140;28;20265;-91
2021/10/01 01:01:10;;;;;;;3.50;1.43;;;15.20;60.50;;;;;;4994242;28;20217;-90
2021/10/01 01:03:52;;;;;;;2.00;1.90;;;15.20;60.30;;;;;;4996995;28;20451;-90
2021/10/01 01:06:42;;;;;;;4.32;2.40;;;15.20;60.40;;;;;;5017658;28;20441;-90
2021/10/01 01:09:30;;;;;;;5.07;1.60;;;15.20;60.40;;;;;;5000339;28;20181;-90
2021/10/01 01:12:13;;;;;;;2.72;2.05;;;15.20;60.40;;;;;;4999837;28;20170;-91
2021/10/01 01:14:50;;;;;;;3.38;1.75;;;15.00;60.40;;;;;;5017994;28;20570;-91
2021/10/01 01:17:27;;;;;;;2.75;1.70;;;15.10;60.60;;;;;;5005549;28;20163;-91
2021/10/01 01:20:18;;;;;;;3.85;2.10;;;15.10;60.70;;;;;;4980687;28;20186;-90
2021/10/01 01:23:18;;;;;;;7.93;2.45;;;15.00;60.50;;;;;;4980077;28;20203;-91
2021/10/01 01:26:25;;;;;;;4.30;2.05;;;15.00;60.70;;;;;;4980358;28;20194;-90
2021/10/01 01:29:17;;;;;;;3.40;1.63;;;14.90;60.80;;;;;;4977955;28;20226;-91
2021/10/01 01:31:55;;;;;;;3.22;2.20;;;14.80;60.80;;;;;;4980138;28;20184;-91
2021/10/01 01:34:37;;;;;;;3.70;2.28;;;14.80;60.90;;;;;;4982858;28;20199;-91
2021/10/01 01:37:14;;;;;;;5.10;1.95;;;14.80;61.10;;;;;;4999843;28;20175;-91
2021/10/01 01:39:40;;;;;;;2.85;1.80;;;14.70;61.40;;;;;;4980664;28;20189;-91
2021/10/01 01:42:07;;;;;;;3.72;2.00;;;14.70;61.60;;;;;;4996629;28;20266;-91
2021/10/01 01:44:38;;;;;;;8.50;2.35;;;14.70;61.30;;;;;;4999407;28;20265;-91
2021/10/01 01:47:05;;;;;;;7.07;1.95;;;14.70;61.60;;;;;;4999703;28;20685;-90
2021/10/01 01:49:32;;;;;;;6.47;2.03;;;14.60;61.80;;;;;;4999307;28;20183;-90
2021/10/01 01:51:59;;;;;;;4.50;2.30;;;14.60;61.90;;;;;;4998762;28;20178;-90
2021/10/01 01:54:27;;;;;;;4.22;2.10;;;14.60;62.00;;;;;;4999343;28;20195;-90
2021/10/01 01:56:54;;;;;;;2.92;2.08;;;14.60;62.20;;;;;;4982608;28;20286;-90
2021/10/01 01:59:21;;;;;;;3.15;1.85;;;14.50;62.30;;;;;;4980635;28;20211;-90
2021/10/01 02:01:48;;;;;;;6.20;2.38;;;14.60;62.50;;;;;;4979298;28;20183;-89
2021/10/01 02:04:15;;;;;;;2.80;2.15;;;14.40;62.40;;;;;;4979882;28;20226;-90
2021/10/01 02:06:43;;;;;;;2.45;2.13;;;14.60;63.10;;;;;;4980431;28;20203;-89
2021/10/01 02:09:11;;;;;;;2.78;1.90;;;14.60;62.80;;;;;;4993843;28;20347;-90
2021/10/01 02:11:40;;;;;;;3.95;1.80;;;14.50;62.70;;;;;;4979174;28;20179;-91
2021/10/01 02:14:07;;;;;;;8.40;2.10;;;14.50;62.80;;;;;;4979480;28;20643;-90
2021/10/01 02:16:33;;;;;;;5.30;1.83;;;14.40;62.50;;;;;;4979520;28;20179;-90
2021/10/01 02:19:01;;;;;;;5.00;2.30;;;14.50;62.90;;;;;;4979689;28;20493;-90
2021/10/01 02:21:30;;;;;;;3.75;1.83;;;14.40;62.70;;;;;;4980642;28;20237;-90
2021/10/01 02:23:56;;;;;;;6.57;1.60;;;14.40;63.00;;;;;;4963579;28;20650;-90
2021/10/01 02:26:38;;;;;;;5.38;1.95;;;14.40;62.90;;;;;;4979290;28;20323;-90
2021/10/01 02:29:25;;;;;;;2.00;1.80;;;14.50;63.00;;;;;;4992834;28;20179;-90
2021/10/01 02:32:13;;;;;;;2.50;1.30;;;14.50;63.10;;;;;;4979275;28;20186;-90
2021/10/01 02:34:42;;;;;;;3.42;1.95;;;14.50;63.30;;;;;;4979217;28;20630;-89
2021/10/01 02:37:08;;;;;;;5.05;1.80;;;14.60;63.10;;;;;;4991567;28;20610;-89
2021/10/01 02:39:37;;;;;;;5.63;2.53;;;14.50;63.20;;;;;;4979142;28;20179;-90
2021/10/01 02:42:04;;;;;;;2.85;1.50;;;14.50;63.30;;;;;;4994878;28;20187;-89
2021/10/01 02:44:31;;;;;;;4.40;1.50;;;14.50;63.00;;;;;;4998679;28;20203;-89
2021/10/01 02:46:56;;;;;;;5.80;1.55;;;14.50;63.10;;;;;;4998305;28;20207;-90
2021/10/01 02:49:22;;;;;;;4.10;1.77;;;14.50;63.30;;;;;;4993936;28;20266;-90
2021/10/01 02:51:53;;;;;;;3.63;1.90;;;14.40;63.10;;;;;;4978938;28;20179;-90
2021/10/01 02:54:28;;;;;;;2.33;1.80;;;14.30;63.40;;;;;;4993731;28;20194;-90
2021/10/01 02:57:10;;;;;;;4.65;1.92;;;14.40;63.40;;;;;;4999062;28;20182;-90
2021/10/01 02:59:41;;;;;;;8.55;1.50;;;14.20;63.40;;;;;;4998661;28;20171;-90
2021/10/01 03:02:10;;;;;;;2.58;1.35;;;14.20;63.50;;;;;;5015422;28;20163;-90
2021/10/01 03:04:37;;;;;;;3.33;1.60;;;14.20;63.60;;;;;;4998971;28;20229;-90
2021/10/01 03:07:06;;;;;;;3.17;1.67;;;14.10;63.80;;;;;;4996283;28;20264;-90
2021/10/01 03:09:35;;;;;;;2.97;1.63;;;14.10;63.80;;;;;;4978590;28;20248;-90
2021/10/01 03:12:01;;;;;;;3.75;1.58;;;14.10;64.20;;;;;;4978911;28;20187;-90
2021/10/01 03:14:28;;;;;;;2.40;1.50;;;13.80;63.90;;;;;;4978424;28;20203;-90
2021/10/01 03:16:56;;;;;;;4.43;1.42;;;13.90;64.40;;;;;;4978509;28;20274;-90
2021/10/01 03:19:24;;;;;;;4.10;1.40;;;13.90;64.10;;;;;;4978108;28;20195;-90
2021/10/01 03:21:55;;;;;;;4.00;1.50;;;14.10;64.50;;;;;;4977833;28;20190;-90
2021/10/01 03:24:22;;;;;;;2.00;1.55;;;14.00;64.10;;;;;;4978311;28;20233;-90
2021/10/01 03:26:48;;;;;;;3.40;2.10;;;14.00;63.70;;;;;;4977989;28;20214;-90
2021/10/01 03:29:14;;;;;;;8.18;1.50;;;13.80;63.80;;;;;;4996920;28;20201;-90
2021/10/01 03:31:40;;;;;;;5.82;1.50;;;13.80;63.80;;;;;;4983243;28;20647;-90
2021/10/01 03:34:09;;;;;;;5.00;1.87;;;13.80;64.00;;;;;;4977980;28;20199;-90
2021/10/01 03:36:36;;;;;;;4.15;1.50;;;13.80;63.50;;;;;;4978176;28;20427;-89
2021/10/01 03:39:04;;;;;;;1.60;1.40;;;13.90;63.60;;;;;;4978258;28;20179;-89
2021/10/01 03:41:30;;;;;;;3.42;1.33;;;14.00;63.20;;;;;;5007258;28;20179;-89
2021/10/01 03:43:56;;;;;;;3.10;1.10;;;13.90;63.00;;;;;;4981264;28;20577;-90
2021/10/01 03:46:25;;;;;;;1.63;1.47;;;13.90;62.90;;;;;;4997438;28;20428;-90
2021/10/01 03:48:51;;;;;;;2.65;1.40;;;13.90;63.20;;;;;;4997719;28;20459;-90
2021/10/01 03:51:16;;;;;;;2.67;1.30;;;14.00;63.20;;;;;;4997420;28;20178;-89
2021/10/01 03:53:42;;;;;;;4.00;1.57;;;14.10;62.90;;;;;;4998230;28;20605;-90
2021/10/01 03:56:18;;;;;;;2.03;1.60;;;14.10;62.50;;;;;;4999068;28;20426;-90
2021/10/01 03:58:48;;;;;;;2.70;1.27;;;14.00;62.40;;;;;;4998896;28;20280;-90
2021/10/01 04:01:14;;;;;;;3.40;1.35;;;14.00;62.40;;;;;;4999273;28;20178;-89
2021/10/01 04:03:40;;;;;;;1.67;1.10;;;14.20;63.00;;;;;;4998236;28;20213;-89
2021/10/01 04:06:06;;;;;;;4.45;1.80;;;14.00;62.30;;;;;;4996123;28;20508;-90
2021/10/01 04:08:33;;;;;;;2.60;1.60;;;13.90;62.50;;;;;;5002881;28;20306;-90
2021/10/01 04:10:59;;;;;;;4.25;1.75;;;13.80;62.40;;;;;;5019139;28;20198;-89
2021/10/01 04:13:25;;;;;;;4.65;1.98;;;14.00;62.50;;;;;;5019352;28;20206;-89
2021/10/01 04:15:52;;;;;;;5.78;1.80;;;13.90;62.30;;;;;;5004344;28;20233;-90
2021/10/01 04:18:18;;;;;;;4.00;1.63;;;14.10;62.60;;;;;;5006970;28;20293;-89
2021/10/01 04:20:45;;;;;;;4.30;1.90;;;14.20;62.30;;;;;;5008279;28;20179;-89
2021/10/01 04:23:12;;;;;;;2.10;1.25;;;14.20;62.10;;;;;;5003934;28;20441;-89
2021/10/01 04:25:38;;;;;;;3.47;1.25;;;14.10;62.30;;;;;;5011622;28;20190;-90
2021/10/01 04:28:10;;;;;;;2.90;1.20;;;14.10;62.40;;;;;;4996687;28;20214;-89
2021/10/01 04:30:43;;;;;;;2.35;1.30;;;14.00;61.90;;;;;;4996696;28;20410;-89
2021/10/01 04:33:24;;;;;;;3.65;1.88;;;13.90;62.20;;;;;;4996525;28;20206;-90
2021/10/01 04:35:52;;;;;;;4.20;1.55;;;13.90;62.70;;;;;;4988353;28;20638;-90
2021/10/01 04:38:19;;;;;;;2.58;1.45;;;13.80;62.70;;;;;;4978606;28;20269;-90
2021/10/01 04:40:45;;;;;;;4.85;1.52;;;13.80;62.80;;;;;;4991950;28;20202;-90
2021/10/01 04:43:10;;;;;;;1.73;1.30;;;13.80;62.80;;;;;;5000096;28;20568;-90
2021/10/01 04:45:36;;;;;;;4.30;2.00;;;13.80;63.10;;;;;;5001100;28;20734;-90
2021/10/01 04:48:06;;;;;;;3.80;1.83;;;13.80;63.00;;;;;;5000876;28;20210;-90
2021/10/01 04:50:34;;;;;;;8.85;1.30;;;13.80;63.00;;;;;;5018439;28;20444;-90
2021/10/01 04:53:00;;;;;;;2.42;1.33;;;13.70;63.10;;;;;;5000144;28;20206;-90
2021/10/01 04:55:26;;;;;;;1.55;1.40;;;13.90;63.40;;;;;;5000565;28;20661;-89
2021/10/01 04:57:53;;;;;;;3.70;1.55;;;14.00;62.70;;;;;;5000681;28;20187;-90
2021/10/01 05:00:19;;;;;;;2.90;1.30;;;13.90;62.60;;;;;;5000472;28;20183;-90
2021/10/01 05:02:45;;;;;;;6.07;1.65;;;13.80;62.70;;;;;;4999970;28;20210;-90
2021/10/01 05:05:17;;;;;;;5.83;1.67;;;13.90;63.10;;;;;;4997785;28;20186;-90
2021/10/01 05:07:42;;;;;;;4.03;1.60;;;13.90;63.40;;;;;;4980577;28;20678;-90
2021/10/01 05:10:09;;;;;;;1.30;1.20;;;14.20;63.40;;;;;;4989125;28;20186;-90
2021/10/01 05:12:34;;;;;;;5.95;1.63;;;14.20;62.90;;;;;;4998927;28;20198;-90
2021/10/01 05:15:00;;;;;;;2.53;1.70;;;14.10;62.40;;;;;;4999867;28;20184;-90
2021/10/01 05:17:26;;;;;;;7.80;1.60;;;14.00;62.60;;;;;;4983767;28;20433;-90
2021/10/01 05:19:52;;;;;;;4.13;1.37;;;14.00;63.10;;;;;;4999695;28;20917;-90
2021/10/01 05:22:17;;;;;;;2.33;1.40;;;14.10;63.00;;;;;;4999321;28;20274;-90
2021/10/01 05:24:44;;;;;;;2.60;1.53;;;14.10;63.10;;;;;;5000724;28;20182;-90
2021/10/01 05:27:11;;;;;;;5.10;1.05;;;14.30;63.30;;;;;;5000028;28;20627;-91
2021/10/01 05:29:36;;;;;;;6.00;1.70;;;14.20;63.00;;;;;;5001989;28;20178;-91
2021/10/01 05:32:02;;;;;;;5.73;1.53;;;14.00;62.90;;;;;;5001739;28;20177;-91
2021/10/01 05:34:28;;;;;;;4.90;1.42;;;14.10;63.30;;;;;;5001770;28;20979;-90
2021/10/01 05:36:54;;;;;;;2.90;1.60;;;14.00;63.20;;;;;;4999372;28;20187;-90
2021/10/01 05:39:20;;;;;;;5.83;1.63;;;14.00;63.40;;;;;;5000872;28;20265;-90
2021/10/01 05:41:46;;;;;;;2.25;1.60;;;14.10;64.00;;;;;;4996450;28;20541;-90
2021/10/01 05:44:12;;;;;;;4.90;1.37;;;14.10;64.00;;;;;;4993834;28;20273;-91
2021/10/01 05:46:42;;;;;;;6.27;1.60;;;14.30;64.00;;;;;;5001324;28;20620;-91
2021/10/01 05:49:12;;;;;;;2.10;1.92;;;14.30;63.80;;;;;;5000621;28;20169;-91
2021/10/01 05:51:46;;;;;;;1.67;1.30;;;14.40;64.00;;;;;;5018333;28;20189;-91
2021/10/01 05:54:13;;;;;;;4.00;1.30;;;14.40;63.80;;;;;;4997045;28;20545;-91
2021/10/01 05:56:39;;;;;;;9.73;2.00;;;14.40;63.70;;;;;;5007812;28;20549;-91
2021/10/01 05:59:06;;;;;;;3.22;1.50;;;14.40;63.70;;;;;;5000412;28;20181;-91
2021/10/01 06:01:34;;;;;;;3.60;1.45;;;14.40;63.50;;;;;;4980474;28;20202;-91
2021/10/01 06:04:03;;;;;;;3.03;1.48;;;14.40;63.80;;;;;;4980438;28;20298;-91
2021/10/01 06:06:29;;;;;;;4.18;1.58;;;14.40;63.90;;;;;;4981239;28;20258;-91
2021/10/01 06:08:55;;;;;;;5.10;1.40;;;14.50;63.50;;;;;;4981307;28;20194;-92
2021/10/01 06:11:21;;;;;;;3.50;1.57;;;14.60;63.90;;;;;;4980686;28;20594;-91
2021/10/01 06:13:49;;;;;;;3.00;1.60;;;14.50;63.40;;;;;;4998060;28;20444;-92
2021/10/01 06:16:15;;;;;;;2.97;1.70;;;14.60;63.50;;;;;;5001464;28;20179;-92
2021/10/01 06:18:41;;;;;;;6.07;1.50;;;14.50;63.20;;;;;;5000305;28;20199;-92
2021/10/01 06:21:07;;;;;;;4.82;1.83;;;14.20;63.70;;;;;;5000833;28;20178;-92
2021/10/01 06:23:35;;;;;;;5.13;1.47;;;14.20;63.60;;;;;;4999441;28;20221;-91
2021/10/01 06:26:02;;;;;;;6.35;1.92;;;14.20;64.00;;;;;;4999832;28;20175;-92
2021/10/01 06:28:28;;;;;;;5.97;1.60;;;14.30;64.30;;;;;;4996617;28;20305;-91
2021/10/01 06:30:57;;;;;;;3.58;1.60;;;14.20;64.10;;;;;;4996509;28;20270;-92
2021/10/01 06:33:24;;;;;;;9.02;1.60;;;14.20;64.50;;;;;;4996505;28;20206;-91
2021/10/01 06:35:50;;;;;;;10.18;1.80;;;14.20;64.80;;;;;;5000679;28;20174;-91
2021/10/01 06:38:16;;;;;;;5.60;1.42;;;14.30;65.00;;;;;;5009265;28;20240;-92
2021/10/01 06:40:41;;;;;;;2.93;1.60;;;14.40;64.60;;;;;;5017950;28;20186;-92
2021/10/01 06:43:09;;;;;;;3.00;1.50;;;14.40;64.20;;;;;;5004441;28;20202;-91
2021/10/01 06:45:35;;;;;;;8.63;1.63;;;14.50;64.30;;;;;;5005529;28;20232;-90
2021/10/01 08:20:58;;;;;;;5.72;2.50;;;16.20;62.70;;;;;;4999547;28;20191;-91
2021/10/01 08:23:24;;;;;;;10.80;1.70;;;16.30;63.10;;;;;;4981669;28;20601;-91
2021/10/01 08:25:49;;;;;;;2.80;1.10;;;16.40;62.90;;;;;;4981645;28;20187;-91
2021/10/01 08:28:15;;;;;;;5.43;1.40;;;16.60;62.60;;;;;;4980005;28;20233;-91
2021/10/01 08:30:41;;;;;;;5.13;1.77;;;16.70;62.40;;;;;;4980609;28;20221;-90
2021/10/01 08:33:06;;;;;;;5.40;1.50;;;16.80;62.50;;;;;;4978833;28;20285;-91
2021/10/01 08:35:32;;;;;;;5.10;1.50;;;17.00;61.10;;;;;;4980122;28;20190;-91
2021/10/01 08:37:59;;;;;;;10.73;3.40;;;17.20;61.20;;;;;;4981801;28;20190;-91
2021/10/01 08:40:26;;;;;;;9.93;1.88;;;17.40;60.20;;;;;;4984566;28;20457;-91
2021/10/01 08:42:53;;;;;;;3.58;1.50;;;17.50;59.80;;;;;;4983753;28;20210;-91
2021/10/01 08:45:22;;;;;;;3.60;2.10;;;17.60;59.20;;;;;;5000238;28;20186;-91
2021/10/01 08:47:48;;;;;;;5.30;1.83;;;17.70;58.90;;;;;;4983738;28;20628;-91
2021/10/01 08:50:19;;;;;;;12.07;1.98;;;17.80;58.50;;;;;;5000909;28;20202;-90
2021/10/01 08:52:46;;;;;;;5.43;1.98;;;17.80;58.40;;;;;;4999467;28;20206;-91
2021/10/01 08:55:12;;;;;;;7.40;2.00;;;17.70;58.20;;;;;;4999819;28;20182;-90
2021/10/01 08:57:39;;;;;;;3.65;1.77;;;18.00;57.80;;;;;;4999426;28;20182;-90
2021/10/01 09:00:09;;;;;;;5.80;1.95;;;18.00;57.30;;;;;;4999230;28;20182;-91
2021/10/01 09:02:35;;;;;;;4.68;1.88;;;18.10;57.40;;;;;;4999667;28;20674;-90
2021/10/01 09:05:07;;;;;;;11.70;2.50;;;18.30;57.30;;;;;;4999887;28;20205;-91
2021/10/01 09:07:32;;;;;;;8.65;2.10;;;18.30;57.00;;;;;;5000135;28;20209;-90
2021/10/01 09:09:58;;;;;;;3.97;2.13;;;18.10;56.70;;;;;;4999857;28;20174;-90
2021/10/01 09:12:25;;;;;;;3.20;1.60;;;18.10;57.00;;;;;;4999603;28;20425;-90
2021/10/01 09:14:57;;;;;;;4.10;1.67;;;18.00;57.50;;;;;;5000143;28;20201;-91
2021/10/01 09:17:25;;;;;;;4.25;1.67;;;18.10;57.20;;;;;;5000137;28;20205;-91
2021/10/01 09:19:52;;;;;;;1.77;1.40;;;18.20;57.20;;;;;;5000376;28;20190;-91
2021/10/01 09:22:25;;;;;;;4.90;1.88;;;18.40;56.60;;;;;;4999830;28;20190;-91
2021/10/01 09:24:51;;;;;;;5.43;1.67;;;18.50;56.20;;;;;;5001622;28;20174;-90
2021/10/01 09:27:17;;;;;;;3.05;1.45;;;18.50;55.90;;;;;;5004111;28;20210;-90
2021/10/01 09:29:42;;;;;;;7.60;1.73;;;18.50;55.90;;;;;;5004498;28;20225;-91
2021/10/01 09:32:14;;;;;;;4.00;1.60;;;18.10;56.20;;;;;;5003642;28;20425;-91
2021/10/01 09:34:42;;;;;;;14.13;1.58;;;18.30;56.60;;;;;;5003771;28;20552;-90
2021/10/01 09:37:21;;;;;;;4.38;1.70;;;18.10;56.50;;;;;;5004304;28;20183;-91
2021/10/01 09:39:54;;;;;;;5.90;1.52;;;18.10;56.90;;;;;;5005513;28;20209;-91
2021/10/01 09:42:25;;;;;;;8.35;2.00;;;18.40;56.90;;;;;;5005204;28;20205;-90
2021/10/01 09:45:03;;;;;;;8.30;2.30;;;18.60;56.50;;;;;;5004293;28;20217;-91
2021/10/01 09:47:32;;;;;;;4.60;1.70;;;18.20;55.80;;;;;;5004307;28;20210;-90
2021/10/01 09:50:06;;;;;;;6.25;1.50;;;18.00;56.70;;;;;;5003887;28;20193;-91
2021/10/01 09:52:42;;;;;;;3.65;1.30;;;18.40;57.00;;;;;;5003519;28;20210;-90
2021/10/01 09:55:09;;;;;;;2.85;1.83;;;18.20;56.30;;;;;;5004312;28;20304;-91
2021/10/01 09:57:39;;;;;;;7.95;2.75;;;18.00;56.70;;;;;;5022486;28;20214;-91
2021/10/01 10:00:28;;;;;;;3.97;1.80;;;17.80;57.40;;;;;;5005449;28;20206;-91
2021/10/01 10:02:53;;;;;;;7.05;1.90;;;17.80;58.40;;;;;;5004101;28;20213;-91
2021/10/01 10:05:19;;;;;;;8.53;1.70;;;17.90;58.00;;;;;;5004593;28;20178;-91
2021/10/01 10:07:47;;;;;;;5.00;1.60;;;17.90;58.10;;;;;;5004748;28;20266;-90
2021/10/01 10:10:13;;;;;;;7.78;1.73;;;18.00;58.30;;;;;;5022704;28;20508;-90
2021/10/01 10:12:42;;;;;;;7.53;2.07;;;18.10;57.90;;;;;;5005110;28;20700;-91
2021/10/01 10:15:16;;;;;;;5.38;2.30;;;18.30;57.60;;;;;;5005048;28;20417;-91
2021/10/01 10:18:00;;;;;;;10.48;2.38;;;18.00;57.70;;;;;;5019539;28;20204;-91
2021/10/01 10:20:26;;;;;;;5.00;1.90;;;18.00;57.60;;;;;;5005141;28;20232;-91
2021/10/01 10:22:52;;;;;;;3.63;1.90;;;18.20;58.00;;;;;;5003918;28;20203;-91
2021/10/01 10:25:17;;;;;;;6.50;2.13;;;18.40;57.50;;;;;;5004785;28;20452;-91
2021/10/01 10:27:44;;;;;;;5.73;1.97;;;18.20;57.40;;;;;;5004530;28;20230;-91
2021/10/01 10:30:10;;;;;;;4.20;1.60;;;18.00;57.90;;;;;;5004795;28;20291;-90
2021/10/01 10:32:36;;;;;;;6.38;2.00;;;18.00;58.40;;;;;;5003726;28;20203;-91
2021/10/01 10:35:08;;;;;;;6.70;2.23;;;18.00;58.00;;;;;;5009296;28;20278;-90
2021/10/01 10:37:41;;;;;;;4.88;1.80;;;18.00;58.10;;;;;;5015891;28;20155;-89
2021/10/01 10:40:18;;;;;;;4.20;2.20;;;18.10;57.80;;;;;;5037413;28;20178;-91
2021/10/01 10:42:49;;;;;;;4.60;2.30;;;18.10;58.10;;;;;;5004757;28;20202;-91
2021/10/01 10:45:36;;;;;;;7.53;2.00;;;18.20;57.80;;;;;;5000616;28;20265;-91
2021/10/01 10:48:08;;;;;;;5.75;2.03;;;18.50;57.60;;;;;;5000461;28;20206;-91
2021/10/01 10:50:35;;;;;;;5.97;1.80;;;18.80;57.00;;;;;;4984819;28;20171;-91
2021/10/01 10:53:08;;;;;;;6.15;2.75;;;18.70;56.70;;;;;;5000780;28;20199;-92
2021/10/01 10:55:51;;;;;;;9.18;1.67;;;18.80;56.40;;;;;;5000409;28;20273;-91
2021/10/01 11:01:23;;;;;;;7.70;3.20;;;18.80;56.70;;;;;;5017076;28;20278;-91
2021/10/01 11:03:54;;;;;;;4.47;1.77;;;18.80;56.30;;;;;;4993287;28;20238;-90
2021/10/01 11:06:20;;;;;;;9.80;2.67;;;18.40;57.10;;;;;;5000696;28;20186;-90
2021/10/01 11:08:49;;;;;;;4.80;2.08;;;18.50;57.40;;;;;;4983947;28;20215;-90
2021/10/01 11:11:33;;;;;;;4.30;1.70;;;18.60;57.50;;;;;;4965256;28;20187;-91
2021/10/01 11:14:20;;;;;;;3.25;1.63;;;18.50;57.60;;;;;;4980118;28;20201;-91
2021/10/01 11:16:55;;;;;;;3.83;1.40;;;18.50;58.40;;;;;;4997540;28;20171;-91
2021/10/01 11:19:42;;;;;;;9.48;2.33;;;18.70;57.90;;;;;;4997419;28;20194;-91
2021/10/01 11:22:30;;;;;;;4.95;2.15;;;18.80;57.60;;;;;;4979591;28;20174;-91
2021/10/01 11:25:12;;;;;;;9.07;2.78;;;18.50;57.60;;;;;;4979881;28;20183;-91
2021/10/01 11:27:49;;;;;;;3.42;2.13;;;18.80;58.10;;;;;;4979624;28;20274;-91
2021/10/01 11:30:15;;;;;;;4.75;2.03;;;18.70;57.50;;;;;;4979992;28;20171;-91
2021/10/01 11:32:41;;;;;;;5.40;2.40;;;18.80;57.80;;;;;;4963497;28;20199;-91
2021/10/01 11:35:07;;;;;;;5.83;2.10;;;19.10;57.80;;;;;;4979558;28;20419;-91
2021/10/01 11:37:36;;;;;;;8.73;2.33;;;19.40;57.10;;;;;;4994531;28;20190;-91
2021/10/01 11:40:24;;;;;;;4.85;1.98;;;19.40;56.40;;;;;;4984218;28;20186;-90
2021/10/01 11:42:54;;;;;;;10.48;2.47;;;19.40;56.50;;;;;;4982878;28;20577;-91
2021/10/01 11:45:23;;;;;;;3.78;1.60;;;19.40;56.50;;;;;;4984241;28;20557;-90
2021/10/01 11:47:57;;;;;;;4.38;2.10;;;19.30;56.60;;;;;;4980497;28;20258;-91
2021/10/01 11:50:33;;;;;;;4.60;1.63;;;19.60;57.00;;;;;;4980566;28;20185;-91
2021/10/01 11:53:00;;;;;;;3.65;1.80;;;19.50;56.70;;;;;;4979624;28;20199;-91
2021/10/01 11:55:33;;;;;;;3.85;1.52;;;19.60;56.70;;;;;;4979649;28;20183;-91
2021/10/01 11:57:59;;;;;;;6.03;1.80;;;19.30;57.00;;;;;;4997128;28;20238;-91
2021/10/01 12:00:25;;;;;;;3.60;2.03;;;19.10;57.40;;;;;;4979649;28;20206;-91
2021/10/01 12:02:53;;;;;;;10.20;1.70;;;18.90;58.10;;;;;;4979082;28;20442;-91
2021/10/01 12:05:31;;;;;;;2.67;1.70;;;19.00;58.60;;;;;;4979382;28;20415;-91
2021/10/01 12:08:01;;;;;;;5.55;2.00;;;19.30;58.20;;;;;;4996520;28;20257;-91
2021/10/01 12:10:32;;;;;;;5.88;1.60;;;19.40;57.80;;;;;;4979143;28;20179;-91
2021/10/01 12:13:22;;;;;;;6.63;1.75;;;19.40;57.60;;;;;;4978251;28;20203;-91
2021/10/01 12:16:10;;;;;;;6.28;1.95;;;19.10;58.00;;;;;;4979484;28;20171;-91
2021/10/01 12:18:35;;;;;;;4.93;1.75;;;19.20;58.10;;;;;;4978614;28;20198;-91
2021/10/01 12:21:07;;;;;;;2.80;2.00;;;18.80;58.30;;;;;;4978711;28;20194;-91
2021/10/01 12:23:35;;;;;;;22.33;1.95;;;19.10;58.80;;;;;;4977750;28;20230;-91
2021/10/01 12:26:18;;;;;;;3.33;1.70;;;19.30;58.60;;;;;;4978756;28;20189;-91
2021/10/01 12:29:09;;;;;;;3.72;1.30;;;19.50;58.30;;;;;;4994660;28;20238;-91
2021/10/01 12:31:56;;;;;;;3.08;1.75;;;19.10;58.00;;;;;;4995237;28;20201;-91
2021/10/01 12:34:26;;;;;;;6.22;1.67;;;19.10;58.50;;;;;;4978365;28;20318;-91
2021/10/01 12:37:05;;;;;;;4.72;1.65;;;19.20;58.60;;;;;;4995082;28;20190;-91
2021/10/01 12:39:33;;;;;;;5.35;1.35;;;18.80;58.90;;;;;;4978646;28;20187;-91
2021/10/01 12:42:03;;;;;;;3.20;1.13;;;19.10;59.20;;;;;;4993592;28;20194;-92
2021/10/01 12:44:38;;;;;;;2.15;1.20;;;19.30;58.90;;;;;;4998311;28;20284;-91
2021/10/01 12:47:18;;;;;;;8.43;1.48;;;19.20;58.50;;;;;;5015808;28;20543;-92
2021/10/01 12:50:10;;;;;;;3.97;1.42;;;18.90;59.30;;;;;;5015969;28;20182;-91
2021/10/01 12:52:56;;;;;;;4.63;1.70;;;18.50;59.90;;;;;;4997469;28;20205;-91
2021/10/01 12:55:22;;;;;;;3.53;1.55;;;18.20;61.10;;;;;;4998075;28;20163;-91
2021/10/01 12:57:52;;;;;;;5.63;2.20;;;18.20;62.40;;;;;;4998901;28;20174;-91
2021/10/01 13:00:21;;;;;;;4.75;1.50;;;18.30;62.90;;;;;;5018582;28;20433;-91
2021/10/01 13:03:07;;;;;;;4.50;1.42;;;18.50;62.60;;;;;;5019660;28;20205;-91
2021/10/01 13:05:43;;;;;;;3.95;1.75;;;18.40;62.50;;;;;;5002116;28;20193;-91
2021/10/01 13:08:15;;;;;;;3.60;1.63;;;18.50;62.60;;;;;;5002438;28;20752;-91
2021/10/01 13:10:42;;;;;;;2.00;1.77;;;18.60;62.30;;;;;;5001362;28;20262;-91
2021/10/01 13:13:20;;;;;;;2.40;1.50;;;18.70;61.40;;;;;;5002279;28;20623;-91
2021/10/01 13:15:45;;;;;;;3.85;1.70;;;18.80;61.10;;;;;;5003053;28;20225;-91
2021/10/01 13:18:16;;;;;;;5.63;2.10;;;18.90;60.50;;;;;;4987615;28;20191;-90
2021/10/01 13:20:48;;;;;;;9.50;2.45;;;19.00;59.70;;;;;;4986026;28;20533;-91
2021/10/01 13:23:22;;;;;;;9.90;2.47;;;18.80;59.90;;;;;;4988543;28;20230;-91
2021/10/01 13:25:53;;;;;;;3.72;1.70;;;18.80;59.80;;;;;;4987667;28;20178;-91
2021/10/01 13:28:22;;;;;;;3.45;1.50;;;18.70;60.10;;;;;;5003270;28;20206;-91
2021/10/01 13:30:48;;;;;;;3.30;1.55;;;18.70;60.00;;;;;;5003938;28;20183;-90
2021/10/01 13:33:16;;;;;;;4.68;1.60;;;18.70;60.20;;;;;;4994975;28;20194;-93
2021/10/01 13:35:42;;;;;;;7.75;1.65;;;18.60;60.20;;;;;;5002985;28;20216;-92
2021/10/01 13:38:08;;;;;;;4.95;1.58;;;18.70;60.10;;;;;;4985592;28;20199;-92
2021/10/01 13:40:36;;;;;;;2.75;1.90;;;18.90;60.00;;;;;;4986191;28;20183;-90
2021/10/01 13:43:03;;;;;;;6.10;1.60;;;19.10;59.50;;;;;;4982141;28;20240;-91
2021/10/01 13:45:29;;;;;;;1.52;1.42;;;18.90;58.80;;;;;;4982063;28;20669;-91
2021/10/01 13:47:55;;;;;;;3.58;1.55;;;18.80;59.20;;;;;;4982084;28;20273;-91
2021/10/01 13:50:21;;;;;;;3.03;1.60;;;19.00;59.20;;;;;;4999887;28;20186;-91
2021/10/01 13:52:47;;;;;;;4.70;1.98;;;19.00;59.90;;;;;;4995001;28;20198;-91
2021/10/01 13:55:14;;;;;;;3.97;1.90;;;18.80;59.40;;;;;;4999988;28;20213;-91
2021/10/01 13:57:41;;;;;;;3.28;1.70;;;18.90;59.70;;;;;;5002810;28;20666;-93
2021/10/01 14:00:09;;;;;;;5.47;1.70;;;18.80;59.70;;;;;;5015873;28;20183;-94
2021/10/01 14:02:37;;;;;;;5.65;1.80;;;18.80;60.00;;;;;;5006963;28;20298;-93
2021/10/01 14:05:09;;;;;;;3.00;2.28;;;18.80;60.00;;;;;;5003869;28;20187;-92
2021/10/01 14:07:35;;;;;;;5.53;1.70;;;19.00;60.00;;;;;;5002798;28;20230;-93
2021/10/01 14:10:01;;;;;;;6.45;1.75;;;19.10;59.80;;;;;;5001587;28;20242;-92
2021/10/01 14:12:28;;;;;;;2.50;1.70;;;18.90;59.70;;;;;;5010989;28;20162;-94
2021/10/01 14:14:55;;;;;;;4.75;2.33;;;18.80;60.20;;;;;;5021356;28;20429;-95
2021/10/01 14:17:21;;;;;;;5.63;2.03;;;18.80;60.70;;;;;;5016265;28;20182;-93
2021/10/01 14:19:47;;;;;;;4.10;1.70;;;18.90;61.50;;;;;;5013848;28;20185;-94
2021/10/01 14:22:14;;;;;;;4.35;1.92;;;18.50;61.90;;;;;;5013974;28;20430;-94
2021/10/01 14:24:39;;;;;;;5.18;1.85;;;18.50;62.90;;;;;;5009042;28;20240;-94
2021/10/01 14:27:06;;;;;;;3.47;1.90;;;18.50;64.60;;;;;;4991846;28;20254;-94
2021/10/01 14:33:06;;;;;;;7.30;4.53;;;18.20;65.60;;;;;;5006068;28;20219;-93
2021/10/01 14:35:32;;;;;;;6.32;2.15;;;17.90;66.30;;;;;;5002694;28;20174;-94
2021/10/01 14:37:58;;;;;;;5.17;1.93;;;17.80;67.00;;;;;;5005881;28;20190;-93
2021/10/01 14:40:24;;;;;;;3.20;1.60;;;17.80;66.60;;;;;;4985823;28;20658;-93